Time;durP1;ratioP1;P1;durP2;ratioP2;P2;SDS_P1;SDS_P2;PMS_P1;PMS_P2;Temp;Humidity;BMP_temperature;BMP_pressure;BME280_temperature;BME280_humidity;BME280_pressure;Samples;Min_cycle;Max_cycle;Signal;HPM_P1;HPM_P2
2021/01/24 00:01:01;;;;;;;11.98;7.50;;;3.90;99.90;;;;;;4992243;28;20038;-75
2021/01/24 00:03:27;;;;;;;8.25;5.80;;;3.90;99.90;;;;;;4993155;28;20027;-75
2021/01/24 00:05:53;;;;;;;16.63;8.82;;;3.90;99.90;;;;;;4994976;28;20054;-75
2021/01/24 00:08:19;;;;;;;7.20;5.40;;;3.90;99.90;;;;;;4995206;28;20022;-75
2021/01/24 00:10:46;;;;;;;27.75;16.08;;;3.90;99.90;;;;;;4996050;28;20380;-75
2021/01/24 00:13:12;;;;;;;28.02;16.65;;;3.90;99.90;;;;;;4995486;28;20042;-75
2021/01/24 00:15:38;;;;;;;10.85;7.28;;;3.90;99.90;;;;;;4995450;28;20060;-75
2021/01/24 00:18:05;;;;;;;9.45;6.18;;;3.90;99.90;;;;;;4978338;28;20034;-75
2021/01/24 00:20:31;;;;;;;7.22;4.50;;;3.90;99.90;;;;;;4994897;28;20062;-75
2021/01/24 00:22:57;;;;;;;5.45;3.85;;;3.90;99.90;;;;;;4995825;28;20041;-75
2021/01/24 00:25:24;;;;;;;5.82;4.05;;;4.00;99.90;;;;;;4995050;28;20038;-75
2021/01/24 00:27:50;;;;;;;5.70;3.95;;;3.90;99.90;;;;;;4995430;28;20046;-75
2021/01/24 00:30:19;;;;;;;6.53;4.03;;;4.00;99.90;;;;;;4994961;28;20035;-75
2021/01/24 00:32:45;;;;;;;9.13;4.80;;;4.00;99.90;;;;;;4995105;28;20046;-75
2021/01/24 00:35:13;;;;;;;6.50;3.83;;;4.00;99.90;;;;;;4995424;28;20030;-75
2021/01/24 00:37:39;;;;;;;4.30;3.10;;;4.00;99.90;;;;;;4994643;28;20038;-75
2021/01/24 00:40:07;;;;;;;5.63;4.03;;;4.00;99.90;;;;;;4995469;28;20045;-76
2021/01/24 00:42:33;;;;;;;5.70;3.00;;;4.00;99.90;;;;;;4994593;28;20041;-75
2021/01/24 00:45:00;;;;;;;9.90;6.35;;;4.00;99.90;;;;;;4994817;28;20038;-76
2021/01/24 00:47:26;;;;;;;22.13;10.40;;;4.00;99.90;;;;;;4994360;28;20050;-76
2021/01/24 00:49:53;;;;;;;14.82;8.10;;;4.00;99.90;;;;;;4995005;28;20030;-76
2021/01/24 00:52:19;;;;;;;12.25;6.22;;;4.00;99.90;;;;;;4993091;28;20050;-76
2021/01/24 00:54:46;;;;;;;35.47;18.25;;;4.00;99.90;;;;;;4992963;28;20034;-76
2021/01/24 00:57:12;;;;;;;13.25;8.20;;;4.00;99.90;;;;;;4995126;28;20494;-76
2021/01/24 00:59:38;;;;;;;10.65;5.63;;;4.00;99.90;;;;;;4994637;28;20049;-76
2021/01/24 01:02:05;;;;;;;9.57;4.88;;;4.00;99.90;;;;;;4994649;28;20053;-76
2021/01/24 01:04:31;;;;;;;5.75;4.18;;;4.00;99.90;;;;;;4994399;28;20053;-76
2021/01/24 01:06:58;;;;;;;8.02;4.90;;;4.00;99.90;;;;;;4994564;28;20041;-76
2021/01/24 01:09:24;;;;;;;8.43;4.18;;;3.90;99.90;;;;;;4994659;28;20387;-77
2021/01/24 01:11:54;;;;;;;7.63;4.63;;;3.90;99.90;;;;;;4994719;28;20030;-77
2021/01/24 01:14:20;;;;;;;4.70;3.95;;;3.90;99.90;;;;;;4993286;28;20041;-76
2021/01/24 01:16:46;;;;;;;4.15;3.10;;;3.90;99.90;;;;;;4993974;28;20038;-76
2021/01/24 01:19:13;;;;;;;4.93;3.60;;;3.80;99.90;;;;;;4994185;28;20053;-76
2021/01/24 01:21:39;;;;;;;5.60;3.42;;;3.70;99.90;;;;;;4994325;28;20030;-76
2021/01/24 01:24:06;;;;;;;5.45;2.95;;;3.70;99.90;;;;;;4993394;28;20047;-76
2021/01/24 01:26:32;;;;;;;7.20;3.67;;;3.60;99.90;;;;;;4993635;28;20061;-76
2021/01/24 01:28:59;;;;;;;7.22;3.83;;;3.70;99.90;;;;;;4994550;28;20050;-76
2021/01/24 01:31:25;;;;;;;5.03;3.55;;;3.60;99.90;;;;;;4994154;28;20034;-76
2021/01/24 01:33:51;;;;;;;6.57;4.05;;;3.60;99.90;;;;;;4994492;28;20038;-75
2021/01/24 01:36:18;;;;;;;7.38;4.40;;;3.70;99.90;;;;;;4993688;28;20026;-76
2021/01/24 01:38:44;;;;;;;7.35;3.92;;;3.60;99.90;;;;;;4993811;28;20047;-76
2021/01/24 01:41:10;;;;;;;7.53;4.07;;;3.60;99.90;;;;;;4994025;28;20042;-76
2021/01/24 01:43:36;;;;;;;7.35;5.05;;;3.60;99.90;;;;;;4993339;28;20216;-76
2021/01/24 01:46:03;;;;;;;6.68;3.45;;;3.70;99.90;;;;;;4993832;28;20033;-75
2021/01/24 01:48:32;;;;;;;4.80;3.42;;;3.70;99.90;;;;;;4994111;28;20027;-75
2021/01/24 01:50:58;;;;;;;5.53;3.45;;;3.60;99.90;;;;;;4994097;28;20041;-75
2021/01/24 01:53:24;;;;;;;5.63;3.28;;;3.60;99.90;;;;;;4993462;28;20030;-75
2021/01/24 01:55:51;;;;;;;6.40;3.08;;;3.60;99.90;;;;;;4994046;28;20026;-75
2021/01/24 01:58:17;;;;;;;5.72;3.50;;;3.60;99.90;;;;;;4993612;28;20372;-75
2021/01/24 02:00:43;;;;;;;7.70;4.30;;;3.60;99.90;;;;;;4993597;28;20476;-75
2021/01/24 02:03:29;;;;;;;8.95;5.03;;;3.60;99.90;;;;;;4993726;28;20080;-75
2021/01/24 02:06:24;;;;;;;6.90;4.03;;;3.60;99.90;;;;;;4994086;28;20038;-74
2021/01/24 02:09:01;;;;;;;6.03;3.45;;;3.60;99.90;;;;;;4993271;28;20030;-75
2021/01/24 02:12:09;;;;;;;8.60;3.85;;;3.60;99.90;;;;;;4993440;28;20038;-74
2021/01/24 02:14:40;;;;;;;7.05;3.47;;;3.60;99.90;;;;;;4965620;28;20042;-73
2021/01/24 02:17:11;;;;;;;2.70;1.30;;;3.70;99.90;;;;;;4993470;28;20034;-74
2021/01/24 02:20:12;;;;;;;3.15;0.95;;;3.70;99.90;;;;;;4992843;28;20452;-74
2021/01/24 02:22:40;;;;;;;2.13;1.10;;;3.60;99.90;;;;;;4992466;28;20038;-73
2021/01/24 02:25:16;;;;;;;0.88;0.65;;;3.60;99.90;;;;;;4993305;28;20368;-73
2021/01/24 02:28:07;;;;;;;1.35;0.52;;;3.60;99.90;;;;;;4993102;28;20027;-74
2021/01/24 02:30:36;;;;;;;;;;;3.60;99.90;;;;;;4961560;28;20046;-74
2021/01/24 02:33:24;;;;;;;1.30;0.63;;;3.60;99.90;;;;;;4993149;28;19925;-74
2021/01/24 02:35:54;;;;;;;0.80;0.47;;;3.50;99.90;;;;;;4993211;28;20042;-74
2021/01/24 02:38:22;;;;;;;0.73;0.38;;;3.60;99.90;;;;;;4993399;28;20037;-74
2021/01/24 02:40:49;;;;;;;1.10;0.45;;;3.60;99.90;;;;;;4992967;28;20034;-74
2021/01/24 02:43:16;;;;;;;1.75;1.00;;;3.50;99.90;;;;;;4993083;28;20038;-75
2021/01/24 02:45:45;;;;;;;1.10;0.50;;;3.50;99.90;;;;;;4992826;28;20452;-74
2021/01/24 02:48:14;;;;;;;1.08;0.40;;;3.50;99.90;;;;;;4992957;28;20038;-74
2021/01/24 02:50:41;;;;;;;2.20;0.73;;;3.50;99.90;;;;;;4992357;28;20034;-74
2021/01/24 02:53:09;;;;;;;1.02;0.50;;;3.50;99.90;;;;;;4992361;28;20030;-74
2021/01/24 02:55:35;;;;;;;0.68;0.40;;;3.50;99.90;;;;;;4975466;28;20045;-74
2021/01/24 02:58:02;;;;;;;0.98;0.40;;;3.40;99.90;;;;;;4992864;28;20034;-74
2021/01/24 03:00:29;;;;;;;1.42;0.50;;;3.50;99.90;;;;;;4992283;28;20054;-74
2021/01/24 03:02:56;;;;;;;2.35;0.55;;;3.40;99.90;;;;;;4992287;28;20518;-74
2021/01/24 03:05:23;;;;;;;0.85;0.40;;;3.40;99.90;;;;;;4991815;28;20054;-75
2021/01/24 03:07:51;;;;;;;1.77;0.80;;;3.40;99.90;;;;;;4993043;28;20027;-75
2021/01/24 03:10:18;;;;;;;1.35;0.70;;;3.40;99.90;;;;;;4992478;28;20041;-75
2021/01/24 03:13:01;;;;;;;1.08;0.52;;;3.40;99.90;;;;;;5003335;28;20034;-75
2021/01/24 03:15:28;;;;;;;1.30;0.55;;;3.40;99.90;;;;;;4991813;28;20045;-75
2021/01/24 03:17:56;;;;;;;1.73;0.80;;;3.40;99.90;;;;;;4992571;28;20057;-75
2021/01/24 03:20:23;;;;;;;1.58;0.77;;;3.40;99.90;;;;;;4992185;28;20053;-75
2021/01/24 03:22:51;;;;;;;1.15;0.50;;;3.30;99.90;;;;;;4992462;28;20039;-75
2021/01/24 03:25:18;;;;;;;3.35;0.85;;;3.30;99.90;;;;;;4992825;28;20041;-75
2021/01/24 03:27:44;;;;;;;1.27;0.70;;;3.30;99.90;;;;;;4991934;28;20110;-75
2021/01/24 03:30:12;;;;;;;1.23;0.70;;;3.30;99.90;;;;;;4992722;28;20038;-75
2021/01/24 03:32:38;;;;;;;1.73;0.43;;;3.30;99.90;;;;;;4991891;28;20511;-75
2021/01/24 03:35:06;;;;;;;0.88;0.40;;;3.20;99.90;;;;;;4992356;28;20038;-74
2021/01/24 03:37:32;;;;;;;1.17;0.50;;;3.20;99.90;;;;;;4992477;28;20042;-74
2021/01/24 03:39:58;;;;;;;1.92;0.85;;;3.20;99.90;;;;;;4995919;28;20049;-75
2021/01/24 03:42:26;;;;;;;1.20;0.60;;;3.10;99.90;;;;;;4995952;28;20027;-74
2021/01/24 03:44:52;;;;;;;1.30;0.55;;;3.10;99.90;;;;;;4996597;28;20030;-75
2021/01/24 03:47:19;;;;;;;2.88;0.60;;;3.10;99.90;;;;;;4995920;28;20368;-75
2021/01/24 03:49:45;;;;;;;2.33;0.95;;;3.20;99.90;;;;;;4996170;28;20038;-74
2021/01/24 03:52:11;;;;;;;1.63;0.82;;;3.20;99.90;;;;;;4978971;28;20468;-75
2021/01/24 03:54:37;;;;;;;2.53;0.95;;;3.20;99.90;;;;;;4995721;28;20058;-75
2021/01/24 03:57:03;;;;;;;1.33;0.85;;;3.20;99.90;;;;;;4995929;28;20049;-75
2021/01/24 03:59:29;;;;;;;2.80;1.00;;;3.20;99.90;;;;;;4995827;28;20030;-75
2021/01/24 04:01:56;;;;;;;1.58;0.90;;;3.20;99.90;;;;;;4991603;28;20047;-74
2021/01/24 04:04:22;;;;;;;2.78;1.50;;;3.20;99.90;;;;;;4994546;28;20039;-75
2021/01/24 04:06:48;;;;;;;3.03;1.58;;;3.20;99.90;;;;;;4996247;28;20388;-74
2021/01/24 04:09:14;;;;;;;3.30;1.40;;;3.10;99.90;;;;;;4993731;28;20049;-74
2021/01/24 04:11:40;;;;;;;4.68;2.00;;;3.20;99.90;;;;;;4995537;28;20034;-74
2021/01/24 04:14:06;;;;;;;2.97;1.90;;;3.10;99.90;;;;;;4995679;28;20475;-74
2021/01/24 04:16:33;;;;;;;3.70;1.90;;;3.10;99.90;;;;;;4993241;28;20034;-74
2021/01/24 04:18:59;;;;;;;6.13;2.72;;;3.10;99.90;;;;;;4995605;28;20057;-74
2021/01/24 04:21:25;;;;;;;4.10;2.20;;;3.20;99.90;;;;;;4994591;28;20065;-74
2021/01/24 04:23:51;;;;;;;7.65;3.70;;;3.10;99.90;;;;;;4996081;28;20035;-75
2021/01/24 04:26:17;;;;;;;5.28;3.05;;;3.00;99.90;;;;;;4995405;28;20038;-74
2021/01/24 04:28:43;;;;;;;5.55;2.80;;;3.00;99.90;;;;;;4994868;28;20034;-74
2021/01/24 04:31:10;;;;;;;5.63;2.88;;;2.90;99.90;;;;;;4995551;28;20045;-75
2021/01/24 04:33:36;;;;;;;7.20;3.83;;;2.90;99.90;;;;;;4994732;28;20050;-74
2021/01/24 04:36:02;;;;;;;6.28;3.20;;;2.90;99.90;;;;;;4995201;28;20487;-75
2021/01/24 04:38:28;;;;;;;6.80;3.63;;;2.80;99.90;;;;;;4994811;28;20030;-75
2021/01/24 04:40:55;;;;;;;6.75;3.47;;;2.80;99.90;;;;;;4995424;28;20042;-75
2021/01/24 04:43:22;;;;;;;7.82;4.38;;;2.80;99.90;;;;;;4995131;28;20034;-74
2021/01/24 04:45:49;;;;;;;11.52;4.30;;;2.80;99.90;;;;;;4994799;28;20047;-75
2021/01/24 04:48:16;;;;;;;7.15;3.78;;;2.70;99.90;;;;;;4995046;28;20030;-75
2021/01/24 04:50:43;;;;;;;6.82;3.97;;;2.70;99.90;;;;;;4994934;28;20468;-74
2021/01/24 04:53:11;;;;;;;7.25;4.68;;;2.70;99.90;;;;;;5008647;28;20038;-75
2021/01/24 04:55:38;;;;;;;8.57;4.93;;;2.70;99.90;;;;;;4994743;28;20034;-74
2021/01/24 04:58:04;;;;;;;8.98;4.55;;;2.70;99.90;;;;;;4994743;28;20492;-75
2021/01/24 05:00:30;;;;;;;7.85;4.38;;;2.70;99.90;;;;;;4994353;28;20061;-75
2021/01/24 05:02:56;;;;;;;8.13;4.18;;;2.70;99.90;;;;;;4994983;28;20034;-74
2021/01/24 05:05:23;;;;;;;10.50;6.63;;;2.70;99.90;;;;;;4994496;28;20392;-75
2021/01/24 05:07:59;;;;;;;9.48;5.15;;;2.70;99.90;;;;;;4977920;28;20034;-75
2021/01/24 05:10:28;;;;;;;9.25;4.55;;;2.70;99.90;;;;;;4994247;28;20046;-75
2021/01/24 05:12:55;;;;;;;9.77;4.75;;;2.70;99.90;;;;;;4995011;28;20034;-75
2021/01/24 05:15:22;;;;;;;8.57;4.45;;;2.70;99.90;;;;;;4994600;28;20030;-75
2021/01/24 05:17:50;;;;;;;9.85;4.50;;;2.70;99.90;;;;;;4994347;28;20034;-74
2021/01/24 05:20:20;;;;;;;10.00;4.60;;;2.70;99.90;;;;;;4993379;28;20074;-74
2021/01/24 05:22:46;;;;;;;6.00;4.10;;;2.70;99.90;;;;;;4993920;28;20034;-75
2021/01/24 05:25:15;;;;;;;7.18;4.40;;;2.70;99.90;;;;;;4994474;28;20042;-75
2021/01/24 05:27:42;;;;;;;8.50;5.10;;;2.60;99.90;;;;;;4993937;28;20467;-75
2021/01/24 05:30:10;;;;;;;8.32;4.50;;;2.70;99.90;;;;;;4993990;28;20037;-74
2021/01/24 05:32:41;;;;;;;10.80;3.83;;;2.60;99.90;;;;;;4993579;28;20408;-74
2021/01/24 05:35:10;;;;;;;7.95;3.47;;;2.70;99.90;;;;;;4994270;28;20073;-74
2021/01/24 05:37:38;;;;;;;4.90;3.08;;;2.70;99.90;;;;;;4993800;28;20034;-75
2021/01/24 05:40:08;;;;;;;5.55;3.22;;;2.70;99.90;;;;;;4994282;28;20049;-75
2021/01/24 05:42:36;;;;;;;5.83;3.57;;;2.70;99.90;;;;;;4994015;28;20399;-75
2021/01/24 05:45:09;;;;;;;6.95;3.45;;;2.70;99.90;;;;;;4993101;28;20049;-74
2021/01/24 05:47:37;;;;;;;6.35;3.17;;;2.60;99.90;;;;;;4994115;28;20054;-75
2021/01/24 05:50:09;;;;;;;5.72;3.33;;;2.60;99.90;;;;;;4993353;28;20061;-75
2021/01/24 05:52:40;;;;;;;4.80;3.03;;;2.60;99.90;;;;;;4993218;28;20039;-76
2021/01/24 05:55:09;;;;;;;5.18;3.00;;;2.50;99.90;;;;;;4989788;28;20046;-75
2021/01/24 05:57:37;;;;;;;9.80;3.58;;;2.50;99.90;;;;;;4993490;28;20034;-75
2021/01/24 06:00:07;;;;;;;6.60;3.08;;;2.50;99.90;;;;;;4993800;28;20384;-75
2021/01/24 06:02:35;;;;;;;5.43;3.60;;;2.40;99.90;;;;;;4992795;28;20034;-75
2021/01/24 06:05:03;;;;;;;5.65;3.40;;;2.40;99.90;;;;;;4993409;28;20042;-75
2021/01/24 06:07:29;;;;;;;8.15;3.38;;;2.30;99.90;;;;;;4993218;28;20038;-76
2021/01/24 06:09:55;;;;;;;8.88;3.58;;;2.30;99.90;;;;;;4993365;28;20038;-75
2021/01/24 06:12:24;;;;;;;7.53;4.00;;;2.30;99.90;;;;;;4992759;28;20491;-75
2021/01/24 06:14:51;;;;;;;8.57;3.55;;;2.30;99.90;;;;;;4993205;28;20031;-75
2021/01/24 06:17:26;;;;;;;5.50;3.30;;;2.30;99.90;;;;;;4993663;28;20037;-75
2021/01/24 06:19:57;;;;;;;5.90;3.38;;;2.30;99.90;;;;;;4993111;28;20030;-75
2021/01/24 06:22:45;;;;;;;6.18;3.22;;;2.30;99.90;;;;;;4992880;28;20038;-76
2021/01/24 06:25:33;;;;;;;5.45;3.35;;;2.20;99.90;;;;;;4993588;28;20047;-75
2021/01/24 06:28:28;;;;;;;6.15;3.75;;;2.30;99.90;;;;;;4993143;28;20043;-75
2021/01/24 06:30:54;;;;;;;8.55;3.10;;;2.30;99.90;;;;;;4993367;28;20057;-75
2021/01/24 06:33:22;;;;;;;5.55;3.58;;;2.30;99.90;;;;;;4993607;28;20046;-75
2021/01/24 06:35:56;;;;;;;6.43;3.22;;;2.30;99.90;;;;;;4991600;28;20049;-76
2021/01/24 06:38:34;;;;;;;5.13;3.10;;;2.30;99.90;;;;;;4984807;28;20041;-75
2021/01/24 06:41:05;;;;;;;5.57;3.03;;;2.30;99.90;;;;;;4993482;28;20050;-75
2021/01/24 06:43:34;;;;;;;6.43;3.20;;;2.20;99.90;;;;;;5010378;28;20476;-75
2021/01/24 06:46:01;;;;;;;4.55;2.53;;;2.30;99.90;;;;;;4992631;28;20503;-75
2021/01/24 06:48:42;;;;;;;5.28;3.15;;;2.30;99.90;;;;;;4990808;28;20041;-75
2021/01/24 06:51:29;;;;;;;6.47;3.33;;;2.30;99.90;;;;;;4993135;28;20392;-75
2021/01/24 06:53:56;;;;;;;5.40;3.47;;;2.30;99.90;;;;;;4993159;28;20039;-75
2021/01/24 06:56:22;;;;;;;5.22;3.10;;;2.30;99.90;;;;;;4993019;28;20039;-75
2021/01/24 06:58:49;;;;;;;7.78;3.83;;;2.30;99.90;;;;;;4992589;28;20031;-75
2021/01/24 07:01:23;;;;;;;6.47;3.80;;;2.30;99.90;;;;;;4992537;28;20044;-75
2021/01/24 07:04:20;;;;;;;4.82;3.00;;;2.20;99.90;;;;;;4992625;28;20027;-75
2021/01/24 07:06:48;;;;;;;28.42;10.95;;;2.30;99.90;;;;;;4992211;28;20033;-75
2021/01/24 07:09:26;;;;;;;15.82;6.57;;;2.30;99.90;;;;;;4992899;28;20037;-76
2021/01/24 07:11:55;;;;;;;5.15;3.30;;;2.30;99.90;;;;;;4992504;28;20041;-75
2021/01/24 07:14:33;;;;;;;7.90;3.40;;;2.40;99.90;;;;;;5008485;28;20105;-74
2021/01/24 07:17:13;;;;;;;7.00;3.20;;;2.40;99.90;;;;;;4992461;28;20037;-75
2021/01/24 07:19:52;;;;;;;10.85;4.28;;;2.40;99.90;;;;;;4992098;28;20064;-75
2021/01/24 07:22:20;;;;;;;4.57;2.70;;;2.40;99.90;;;;;;4991789;28;20097;-75
2021/01/24 07:24:47;;;;;;;6.13;3.08;;;2.40;99.90;;;;;;4991866;28;20034;-77
2021/01/24 07:27:16;;;;;;;5.30;3.25;;;2.40;99.90;;;;;;4992090;28;20046;-76
2021/01/24 07:29:42;;;;;;;6.60;3.60;;;2.40;99.90;;;;;;4991511;28;20053;-76
2021/01/24 07:32:10;;;;;;;5.25;3.80;;;2.30;99.90;;;;;;4992691;28;20046;-76
2021/01/24 07:34:37;;;;;;;6.53;3.30;;;2.30;99.90;;;;;;4991855;28;20030;-76
2021/01/24 07:37:06;;;;;;;6.80;3.28;;;2.20;99.90;;;;;;4992629;28;20412;-76
2021/01/24 07:39:33;;;;;;;6.47;3.67;;;2.20;99.90;;;;;;4992332;28;20030;-76
2021/01/24 07:42:00;;;;;;;6.97;3.97;;;2.20;99.90;;;;;;4992534;28;20041;-76
2021/01/24 07:44:26;;;;;;;6.30;3.50;;;2.10;99.90;;;;;;4991990;28;20038;-76
2021/01/24 07:46:53;;;;;;;6.25;3.70;;;2.10;99.90;;;;;;4975549;28;20042;-76
2021/01/24 07:49:20;;;;;;;6.78;4.43;;;2.10;99.90;;;;;;4992248;28;20018;-76
2021/01/24 07:51:47;;;;;;;9.13;4.20;;;2.00;99.90;;;;;;4991788;28;20253;-76
2021/01/24 07:54:15;;;;;;;7.50;3.92;;;2.00;99.90;;;;;;4992223;28;20392;-77
2021/01/24 07:56:42;;;;;;;8.88;4.70;;;2.10;99.90;;;;;;4991776;28;20041;-76
2021/01/24 07:59:09;;;;;;;8.95;4.43;;;2.00;99.90;;;;;;4992087;28;20045;-76
2021/01/24 08:01:36;;;;;;;7.13;4.32;;;2.10;99.90;;;;;;4979774;28;20498;-76
2021/01/24 08:04:06;;;;;;;7.40;4.57;;;2.10;99.90;;;;;;4992369;28;20030;-76
2021/01/24 08:06:34;;;;;;;6.57;4.15;;;2.10;99.90;;;;;;4992060;28;20386;-77
2021/01/24 08:09:00;;;;;;;13.93;4.47;;;2.10;99.90;;;;;;4992407;28;20383;-80
2021/01/24 08:11:28;;;;;;;7.35;4.50;;;2.10;99.90;;;;;;4992067;28;20046;-78
2021/01/24 08:13:55;;;;;;;6.88;4.43;;;2.20;99.90;;;;;;4991258;28;20045;-78
2021/01/24 08:16:26;;;;;;;10.73;4.40;;;2.20;99.90;;;;;;4992018;28;20033;-78
2021/01/24 08:18:55;;;;;;;8.35;4.43;;;2.20;99.90;;;;;;4992370;28;20030;-78
2021/01/24 08:21:22;;;;;;;9.30;3.85;;;2.20;99.90;;;;;;5010276;28;20034;-78
2021/01/24 08:23:53;;;;;;;8.30;4.50;;;2.30;99.90;;;;;;4991989;28;20039;-79
2021/01/24 08:26:20;;;;;;;6.03;3.58;;;2.40;99.90;;;;;;4995615;28;20060;-79
2021/01/24 08:28:48;;;;;;;7.93;3.88;;;2.30;99.90;;;;;;4994890;28;20326;-78
2021/01/24 08:31:21;;;;;;;6.00;4.32;;;2.40;99.90;;;;;;4995086;28;20061;-78
2021/01/24 08:33:49;;;;;;;9.18;4.40;;;2.40;99.90;;;;;;4995572;28;20377;-77
2021/01/24 08:36:24;;;;;;;10.38;3.67;;;2.50;99.90;;;;;;4995533;28;20053;-77
2021/01/24 08:38:55;;;;;;;6.95;3.30;;;2.50;99.90;;;;;;4994844;28;20041;-77
2021/01/24 08:41:32;;;;;;;5.72;3.40;;;2.50;99.90;;;;;;4994844;28;20065;-75
2021/01/24 08:44:07;;;;;;;5.43;3.33;;;2.50;99.90;;;;;;4979526;28;20054;-76
2021/01/24 08:46:38;;;;;;;6.75;4.18;;;2.60;99.90;;;;;;4994432;28;20049;-75
2021/01/24 08:49:12;;;;;;;7.20;4.07;;;2.60;99.90;;;;;;4977672;28;20049;-75
2021/01/24 08:51:46;;;;;;;9.63;4.07;;;2.60;99.90;;;;;;4994283;28;20042;-76
2021/01/24 08:54:17;;;;;;;13.27;8.88;;;2.60;99.90;;;;;;4995495;28;20041;-76
2021/01/24 08:56:43;;;;;;;5.90;4.10;;;2.60;99.90;;;;;;5008947;28;20459;-76
2021/01/24 08:59:23;;;;;;;8.13;3.53;;;2.60;99.90;;;;;;4995003;28;20026;-76
2021/01/24 09:01:52;;;;;;;6.60;3.88;;;2.60;99.90;;;;;;4993681;28;20050;-76
2021/01/24 09:04:30;;;;;;;9.55;4.22;;;2.60;99.90;;;;;;4999422;28;20045;-75
2021/01/24 09:07:13;;;;;;;9.57;4.75;;;2.60;99.90;;;;;;5004533;28;20042;-76
2021/01/24 09:09:43;;;;;;;9.18;4.55;;;2.70;99.90;;;;;;4985634;28;20045;-75
2021/01/24 09:12:15;;;;;;;7.95;5.05;;;2.70;99.90;;;;;;5006905;28;20037;-76
2021/01/24 09:14:42;;;;;;;8.55;4.10;;;2.70;99.90;;;;;;5002314;28;20022;-75
2021/01/24 09:17:15;;;;;;;6.95;3.80;;;2.70;99.90;;;;;;5004842;28;20026;-75
2021/01/24 09:19:44;;;;;;;8.40;3.97;;;2.70;99.90;;;;;;5003221;28;20033;-75
2021/01/24 09:22:14;;;;;;;7.78;3.85;;;2.70;99.90;;;;;;4987661;28;20034;-75
2021/01/24 09:24:41;;;;;;;7.18;4.07;;;2.80;99.90;;;;;;5003522;28;20034;-75
2021/01/24 09:27:09;;;;;;;7.03;4.00;;;2.70;99.90;;;;;;5003564;28;20054;-75
2021/01/24 09:29:37;;;;;;;7.22;4.38;;;2.80;99.90;;;;;;5001798;28;20031;-76
2021/01/24 09:32:04;;;;;;;9.23;4.68;;;2.80;99.90;;;;;;5002536;28;20037;-76
2021/01/24 09:34:31;;;;;;;10.50;5.05;;;2.90;99.90;;;;;;5002921;28;20357;-76
2021/01/24 09:36:57;;;;;;;8.35;5.70;;;2.90;99.90;;;;;;5000661;28;20526;-78
2021/01/24 09:39:24;;;;;;;8.23;5.13;;;2.90;99.90;;;;;;4994539;28;20038;-74
2021/01/24 09:41:51;;;;;;;7.65;4.80;;;3.00;99.90;;;;;;4993409;28;20278;-74
2021/01/24 09:44:17;;;;;;;9.27;5.30;;;3.00;99.90;;;;;;4993919;28;20346;-74
2021/01/24 09:46:43;;;;;;;7.35;4.78;;;3.00;99.90;;;;;;4993447;28;20029;-74
2021/01/24 09:49:10;;;;;;;7.25;4.93;;;3.00;99.90;;;;;;4994490;28;20388;-74
2021/01/24 09:51:36;;;;;;;9.10;4.80;;;3.10;99.90;;;;;;4993585;28;20045;-74
2021/01/24 09:54:03;;;;;;;7.00;4.72;;;3.10;99.90;;;;;;4994053;28;20483;-77
2021/01/24 09:56:30;;;;;;;6.28;3.70;;;3.20;99.90;;;;;;4993863;28;20034;-76
2021/01/24 09:58:57;;;;;;;6.47;3.45;;;3.10;99.90;;;;;;4995021;28;20041;-77
2021/01/24 10:01:24;;;;;;;8.80;4.18;;;3.10;99.90;;;;;;4993802;28;20046;-76
2021/01/24 10:03:51;;;;;;;7.88;3.90;;;3.10;99.90;;;;;;4991965;28;20062;-77
2021/01/24 10:06:19;;;;;;;6.68;4.28;;;3.20;99.90;;;;;;5006204;28;20029;-77
2021/01/24 10:08:45;;;;;;;7.60;4.05;;;3.20;99.90;;;;;;5004746;28;20041;-78
2021/01/24 10:11:12;;;;;;;7.80;3.95;;;3.20;99.90;;;;;;4986505;28;20361;-77
2021/01/24 10:13:39;;;;;;;9.82;3.75;;;3.20;99.90;;;;;;5003635;28;20026;-75
2021/01/24 10:16:06;;;;;;;8.10;3.72;;;3.20;99.90;;;;;;4993525;28;20026;-75
2021/01/24 10:18:33;;;;;;;9.48;3.70;;;3.20;99.90;;;;;;4993184;28;20380;-75
2021/01/24 10:20:59;;;;;;;6.88;4.10;;;3.20;99.90;;;;;;4993212;28;20046;-76
2021/01/24 10:23:25;;;;;;;6.43;3.90;;;3.20;99.90;;;;;;4993173;28;20110;-76
2021/01/24 10:25:53;;;;;;;7.40;4.03;;;3.20;99.90;;;;;;4992821;28;20049;-76
2021/01/24 10:28:20;;;;;;;7.18;3.13;;;3.20;99.90;;;;;;4993231;28;20022;-76
2021/01/24 10:30:47;;;;;;;8.48;3.50;;;3.30;99.90;;;;;;4992735;28;20030;-76
2021/01/24 10:33:14;;;;;;;5.82;3.80;;;3.20;99.90;;;;;;4995392;28;20050;-77
2021/01/24 10:35:41;;;;;;;6.32;3.60;;;3.30;99.90;;;;;;4992004;28;20046;-77
2021/01/24 10:38:08;;;;;;;5.78;3.53;;;3.30;99.90;;;;;;4993145;28;20041;-78
2021/01/24 10:40:35;;;;;;;7.70;4.00;;;3.40;99.90;;;;;;4992630;28;20031;-76
2021/01/24 10:43:06;;;;;;;6.28;3.42;;;3.40;99.90;;;;;;4992553;28;20042;-77
2021/01/24 10:45:34;;;;;;;7.25;4.30;;;3.30;99.90;;;;;;4992093;28;20046;-77
2021/01/24 10:48:02;;;;;;;8.50;3.97;;;3.30;99.90;;;;;;4992845;28;20034;-78
2021/01/24 10:50:29;;;;;;;9.68;5.65;;;3.40;99.90;;;;;;4992438;28;20045;-77
2021/01/24 10:52:55;;;;;;;9.10;4.40;;;3.40;99.90;;;;;;4992450;28;20479;-77
2021/01/24 10:55:23;;;;;;;9.18;4.22;;;3.30;99.90;;;;;;4992781;28;20391;-77
2021/01/24 10:57:49;;;;;;;5.38;3.15;;;3.40;99.90;;;;;;4991986;28;20058;-76
2021/01/24 11:00:16;;;;;;;9.25;4.25;;;3.40;99.90;;;;;;5001213;28;20034;-77
2021/01/24 11:02:42;;;;;;;9.65;4.70;;;3.40;99.90;;;;;;5003800;28;20026;-77
2021/01/24 11:05:09;;;;;;;8.30;4.38;;;3.40;99.90;;;;;;5001264;28;20034;-76
2021/01/24 11:07:36;;;;;;;7.38;4.25;;;3.50;99.90;;;;;;4999493;28;20034;-76
2021/01/24 11:10:05;;;;;;;9.90;4.13;;;3.40;99.90;;;;;;5005928;28;20026;-77
2021/01/24 11:12:31;;;;;;;10.90;4.32;;;3.40;99.90;;;;;;5002375;28;20038;-77
2021/01/24 11:14:57;;;;;;;9.13;4.53;;;3.40;99.90;;;;;;4998643;28;20041;-77
2021/01/24 11:17:24;;;;;;;7.25;5.32;;;3.40;99.90;;;;;;5000193;28;20030;-77
2021/01/24 11:19:53;;;;;;;9.40;5.45;;;3.40;99.90;;;;;;5000667;28;20045;-77
2021/01/24 11:22:21;;;;;;;9.73;5.00;;;3.50;99.90;;;;;;4998593;28;20038;-78
2021/01/24 11:24:47;;;;;;;8.15;4.72;;;3.50;99.90;;;;;;5013539;28;20037;-77
2021/01/24 11:27:13;;;;;;;10.60;5.75;;;3.50;99.90;;;;;;4995430;28;20380;-77
2021/01/24 11:29:41;;;;;;;10.55;4.65;;;3.50;99.90;;;;;;4992256;28;20042;-77
2021/01/24 11:32:08;;;;;;;7.25;4.65;;;3.50;99.90;;;;;;4992798;28;20061;-77
2021/01/24 11:34:36;;;;;;;7.15;4.20;;;3.60;99.90;;;;;;4993224;28;20049;-75
2021/01/24 11:37:02;;;;;;;7.70;5.03;;;3.60;99.90;;;;;;4992974;28;20415;-77
2021/01/24 11:39:29;;;;;;;11.77;5.20;;;3.60;99.90;;;;;;5003354;28;20036;-77
2021/01/24 11:41:55;;;;;;;16.60;5.63;;;3.60;99.90;;;;;;5002630;28;20034;-77
2021/01/24 11:44:24;;;;;;;11.07;4.80;;;3.60;99.90;;;;;;4992345;28;20030;-77
2021/01/24 11:46:52;;;;;;;10.25;5.40;;;3.60;99.90;;;;;;4992152;28;20482;-77
2021/01/24 11:49:19;;;;;;;9.88;5.55;;;3.60;99.90;;;;;;4993115;28;20397;-77
2021/01/24 11:51:45;;;;;;;10.85;6.00;;;3.60;99.90;;;;;;4992019;28;20043;-78
2021/01/24 11:54:12;;;;;;;12.32;6.13;;;3.50;99.90;;;;;;4991041;28;20049;-77
2021/01/24 11:56:39;;;;;;;12.80;6.07;;;3.50;99.90;;;;;;4991061;28;20432;-76
2021/01/24 11:59:05;;;;;;;7.45;4.43;;;3.50;99.90;;;;;;5000203;28;20041;-78
2021/01/24 12:01:31;;;;;;;9.32;4.63;;;3.50;99.90;;;;;;4996485;28;20030;-77
2021/01/24 12:03:59;;;;;;;12.27;7.15;;;3.50;99.90;;;;;;4995585;28;20038;-79
2021/01/24 12:06:25;;;;;;;6.78;3.83;;;3.50;99.90;;;;;;4995811;28;20478;-77
2021/01/24 12:08:51;;;;;;;11.32;6.63;;;3.60;99.90;;;;;;4995555;28;20038;-77
2021/01/24 12:11:18;;;;;;;12.23;8.50;;;3.60;99.90;;;;;;4995858;28;20045;-77
2021/01/24 12:13:44;;;;;;;16.35;10.32;;;3.60;99.90;;;;;;4995243;28;20392;-77
2021/01/24 12:16:10;;;;;;;12.82;9.40;;;3.60;99.90;;;;;;4995578;28;20031;-78
2021/01/24 12:18:36;;;;;;;18.17;10.88;;;3.70;99.90;;;;;;4994323;28;20042;-76
2021/01/24 12:21:03;;;;;;;9.20;5.55;;;3.70;99.90;;;;;;4995235;28;20039;-77
2021/01/24 12:23:29;;;;;;;13.30;7.70;;;3.70;99.90;;;;;;4994322;28;20058;-78
2021/01/24 12:25:56;;;;;;;7.63;6.00;;;3.70;99.90;;;;;;4994765;28;20042;-77
2021/01/24 12:28:22;;;;;;;15.30;6.60;;;3.70;99.90;;;;;;4994646;28;20500;-77
2021/01/24 12:30:48;;;;;;;12.00;7.85;;;3.70;99.90;;;;;;4984026;28;20038;-77
2021/01/24 12:33:14;;;;;;;9.30;6.00;;;3.80;99.90;;;;;;4994902;28;20042;-77
2021/01/24 12:35:41;;;;;;;12.18;8.25;;;3.80;99.90;;;;;;4994866;28;20038;-78
2021/01/24 12:38:08;;;;;;;13.18;7.32;;;3.80;99.90;;;;;;4995049;28;20373;-77
2021/01/24 12:40:35;;;;;;;8.05;4.97;;;3.90;99.90;;;;;;4996023;28;20031;-79
2021/01/24 12:43:02;;;;;;;12.57;6.43;;;3.90;99.90;;;;;;5004326;28;20041;-78
2021/01/24 12:45:28;;;;;;;11.20;7.25;;;3.80;99.90;;;;;;5005088;28;20037;-80
2021/01/24 12:47:55;;;;;;;8.82;5.50;;;3.90;99.90;;;;;;5005029;28;20097;-80
2021/01/24 12:50:21;;;;;;;8.75;5.55;;;4.00;99.90;;;;;;5002018;28;20037;-80
2021/01/24 12:52:48;;;;;;;11.20;4.45;;;4.30;99.90;;;;;;4995033;28;20352;-79
2021/01/24 12:55:15;;;;;;;8.02;3.95;;;4.40;98.80;;;;;;5006872;28;20045;-81
2021/01/24 12:57:41;;;;;;;7.70;4.50;;;4.40;98.00;;;;;;4994228;28;20392;-81
2021/01/24 13:00:09;;;;;;;6.53;3.47;;;4.40;98.10;;;;;;4994014;28;20046;-78
2021/01/24 13:02:36;;;;;;;5.32;2.80;;;4.50;97.40;;;;;;4994307;28;20480;-78